Farmington, Connecticut
Current Conditions -  °F | °C
As of 7:17 PM on Wednesday 26 Nov 2014 (Local Time) from KHFD Reporting Station
Light Snow Light Snow  
Wind Chill: 27°   Ceiling: 900
Heat Index: 34°   Visibility: 2mi
Dew Point: 31°   Wind: 9mph
Humidity: 89%   Direction: 360°N
Pressure: 29.76"   Gusts: 21mph
Location:  41.72°N, 72.83°W
Report Text: KHFD 270017Z 36008G18KT 2SM -SN BR BKN009 OVC013 01/M01 A2976 RMK AO2 RAE03SNB03 P0001 T00111006
Loading
Personal Weather Stations






























Interactive Weather Map New forecast layout! Learn more

10-Day Weather Forecast

Advertisements
Track Severe Weather on mobile